»·PEaware :: N49872 KWJF-KHHR

N49872 :: KWJF-KHHR

FLIGHT INFORMATION

Flight Status: Arrived
Operator: Privately registered:
United States
More flights under this callsign
Pilot: Jeff K. (12978)
Aircraft: BEECH AIRCRAFT BARON
(BE58)
More flights by this aircraft type
Origin: KWJF Gen Fox
United States
Destination: KHHR Northrop/Hawthorne Mun
United States
More flights between these airports :: More routes between these airports
Route: +PMD V518 KIMMO V459 DARTS V186 ADAMM V394 HHR RY 25 LOC
File this flight plan on PilotEdge
Remarks:
Altitude:
(Current/Filed)
8,000ft
Speed:
(Current/Filed)
160kts
Departed: 17-Jul-17 05:32 PM
Arrived: 17-Jul-17 06:14 PM
Distance/Time
Traveled:
49nm/0:41
Distance/Time
To Go:
Arrived

Flight Plot

Page will automatically refresh every two minutes.

Flight plan parsing failed; only flown route is shown


Map Options




Map Legend


Flown Route
Filed Route
Departure Airport
Arrival Airport
Navaid (VOR, NDB)
Fix

Horizontal Profiles

Position Reports

Time Latitude Longitude Heading Altitude Ground
Speed
17-Jul-17 17:12 34.739607 -118.213548 250 2337ft 0kts
17-Jul-17 17:13 34.739607 -118.213548 250 2337ft 0kts
17-Jul-17 17:14 34.739607 -118.213548 250 2337ft 0kts
17-Jul-17 17:15 34.739607 -118.213548 250 2337ft 0kts
17-Jul-17 17:16 34.739603 -118.213559 250 2337ft 0kts
17-Jul-17 17:17 34.739603 -118.213559 250 2337ft 0kts
17-Jul-17 17:18 34.739603 -118.213559 250 2337ft 0kts
17-Jul-17 17:19 34.739603 -118.213559 250 2337ft 0kts
17-Jul-17 17:20 34.739603 -118.213559 250 2337ft 0kts
17-Jul-17 17:21 34.739603 -118.213559 250 2337ft 0kts
17-Jul-17 17:22 34.739603 -118.213559 250 2337ft 0kts
17-Jul-17 17:23 34.739603 -118.213559 250 2337ft 0kts
17-Jul-17 17:24 34.739602 -118.213562 250 2337ft 0kts
17-Jul-17 17:25 34.740569 -118.213306 339 2337ft 8kts
17-Jul-17 17:26 34.741581 -118.212959 71 2337ft 10kts
17-Jul-17 17:27 34.742232 -118.210567 74 2334ft 10kts
17-Jul-17 17:28 34.742917 -118.208056 68 2333ft 7kts
17-Jul-17 17:29 34.742835 -118.207355 279 2333ft 0kts
17-Jul-17 17:30 34.742835 -118.207355 279 2333ft 0kts
17-Jul-17 17:31 34.742835 -118.207355 279 2333ft 0kts
17-Jul-17 17:32 34.742886 -118.207452 343 2333ft 0kts
17-Jul-17 17:33 34.743269 -118.207087 25 2333ft 0kts
17-Jul-17 17:34 34.743575 -118.207133 332 2333ft 8kts
17-Jul-17 17:35 34.741798 -118.215854 253 2403ft 100kts
17-Jul-17 17:36 34.719878 -118.222159 120 3792ft 122kts
17-Jul-17 17:37 34.712255 -118.180573 97 5044ft 128kts
17-Jul-17 17:38 34.694384 -118.142918 135 6110ft 134kts
17-Jul-17 17:39 34.668382 -118.110681 133 7171ft 134kts
17-Jul-17 17:40 34.642397 -118.077270 133 7922ft 145kts
17-Jul-17 17:41 34.612950 -118.039279 158 8041ft 162kts
17-Jul-17 17:42 34.577357 -118.064242 248 7994ft 170kts
17-Jul-17 17:43 34.561169 -118.118870 253 7947ft 174kts
17-Jul-17 17:44 34.554947 -118.176806 263 7955ft 173kts
17-Jul-17 17:45 34.529577 -118.225005 231 8018ft 171kts
17-Jul-17 17:46 34.500341 -118.270879 233 7997ft 172kts
17-Jul-17 17:47 34.471220 -118.316995 233 7988ft 172kts
17-Jul-17 17:48 34.443487 -118.362946 233 7959ft 172kts
17-Jul-17 17:49 34.412698 -118.407022 207 7960ft 169kts
17-Jul-17 17:50 34.370663 -118.393135 143 8009ft 168kts
17-Jul-17 17:51 34.330343 -118.363177 152 7989ft 169kts
17-Jul-17 17:52 34.287792 -118.338328 153 7996ft 170kts
17-Jul-17 17:53 34.245265 -118.313419 156 7992ft 170kts
17-Jul-17 17:54 34.202494 -118.289013 152 7980ft 170kts
17-Jul-17 17:55 34.161075 -118.262541 131 7990ft 169kts
17-Jul-17 17:56 34.140300 -118.211765 107 7936ft 173kts
17-Jul-17 17:57 34.124220 -118.154856 112 7402ft 180kts
17-Jul-17 17:58 34.106506 -118.096729 110 6455ft 186kts
17-Jul-17 17:59 34.089189 -118.040333 112 5939ft 170kts
17-Jul-17 18:00 34.074470 -117.987462 107 4963ft 165kts
17-Jul-17 18:01 34.058974 -117.936502 114 4081ft 160kts
17-Jul-17 18:02 34.045699 -117.890215 113 3952ft 138kts
17-Jul-17 18:03 34.030391 -117.842036 110 4002ft 165kts
17-Jul-17 18:04 34.002042 -117.811359 207 3988ft 155kts
17-Jul-17 18:05 33.968555 -117.839290 214 3836ft 149kts
17-Jul-17 18:06 33.939948 -117.874330 231 3712ft 144kts
17-Jul-17 18:07 33.924566 -117.916971 276 3532ft 142kts
17-Jul-17 18:08 33.935512 -117.964108 280 3221ft 150kts
17-Jul-17 18:09 33.937634 -118.012560 259 2885ft 147kts
17-Jul-17 18:10 33.935587 -118.059759 266 2668ft 140kts
17-Jul-17 18:11 33.933483 -118.107450 266 2388ft 144kts
17-Jul-17 18:12 33.931571 -118.151822 265 1719ft 122kts
17-Jul-17 18:13 33.929755 -118.192536 268 1536ft 128kts
17-Jul-17 18:14 33.927830 -118.236625 268 1152ft 119kts
17-Jul-17 18:15 33.925679 -118.275266 264 907ft 115kts
17-Jul-17 18:16 33.923896 -118.313559 266 361ft 109kts
17-Jul-17 18:17 33.922481 -118.334407 128 57ft 0kts
17-Jul-17 18:18 33.922481 -118.334407 128 57ft 0kts
17-Jul-17 18:19 33.922533 -118.333114 86 57ft 13kts
17-Jul-17 18:20 33.922552 -118.330334 148 54ft 6kts

Navigation Log

Ident Type
Flight plan parsing failed, navigation log unavailable